Time;durP1;ratioP1;P1;durP2;ratioP2;P2;SDS_P1;SDS_P2;PMS_P1;PMS_P2;Temp;Humidity;BMP_temperature;BMP_pressure;BME280_temperature;BME280_humidity;BME280_pressure;Samples;Min_cycle;Max_cycle;Signal;HPM_P1;HPM_P2
2022/04/06 00:00:17;;;;;;;12.32;10.35;;;;;;;;;;10422454;28;20203;-72
2022/04/06 00:05:18;;;;;;;11.50;10.40;;;;;;;;;;10424564;28;20210;-72
2022/04/06 00:10:19;;;;;;;15.07;12.85;;;;;;;;;;10416061;28;20211;-72
2022/04/06 00:15:20;;;;;;;12.13;10.82;;;;;;;;;;10418753;28;20807;-71
2022/04/06 00:20:22;;;;;;;13.32;10.77;;;;;;;;;;10422918;28;20195;-72
2022/04/06 00:25:24;;;;;;;11.50;9.50;;;;;;;;;;10404498;28;20229;-71
2022/04/06 00:30:25;;;;;;;8.85;8.00;;;;;;;;;;10420884;28;20203;-72
2022/04/06 00:35:29;;;;;;;9.07;8.23;;;;;;;;;;10424692;28;20306;-71
2022/04/06 00:40:30;;;;;;;7.35;6.85;;;;;;;;;;10425331;28;20286;-71
2022/04/06 00:45:31;;;;;;;7.82;7.13;;;;;;;;;;10421106;28;20973;-73
2022/04/06 00:50:33;;;;;;;6.45;5.93;;;;;;;;;;10423332;28;20199;-74
2022/04/06 00:55:35;;;;;;;6.13;5.75;;;;;;;;;;10421583;28;20219;-74
2022/04/06 01:00:36;;;;;;;6.53;6.07;;;;;;;;;;10415602;28;20242;-72
2022/04/06 01:05:37;;;;;;;6.55;6.05;;;;;;;;;;10420544;28;20199;-71
2022/04/06 01:10:38;;;;;;;6.43;6.03;;;;;;;;;;10420061;28;20207;-71
2022/04/06 01:15:39;;;;;;;6.70;6.10;;;;;;;;;;10421104;28;20234;-71
2022/04/06 01:20:40;;;;;;;6.75;6.18;;;;;;;;;;10419138;28;20210;-71
2022/04/06 01:25:42;;;;;;;5.95;5.38;;;;;;;;;;10416046;28;20192;-71
2022/04/06 01:30:43;;;;;;;7.13;5.30;;;;;;;;;;10417667;28;20223;-71
2022/04/06 01:35:44;;;;;;;6.53;5.95;;;;;;;;;;10420614;28;20218;-72
2022/04/06 01:40:45;;;;;;;8.32;6.32;;;;;;;;;;10419825;28;20706;-71
2022/04/06 01:45:46;;;;;;;6.40;5.85;;;;;;;;;;10419290;28;20231;-74
2022/04/06 01:56:07;;;;;;;7.72;5.95;;;;;;;;;;10417880;28;20230;-75
2022/04/06 02:01:08;;;;;;;10.77;7.70;;;;;;;;;;10420959;28;20710;-72
2022/04/06 02:06:09;;;;;;;8.93;8.02;;;;;;;;;;10421528;28;20209;-72
2022/04/06 02:11:10;;;;;;;14.30;10.23;;;;;;;;;;10403890;28;20214;-71
2022/04/06 02:16:11;;;;;;;16.70;12.45;;;;;;;;;;10415467;28;20191;-71
2022/04/06 02:21:12;;;;;;;12.07;9.85;;;;;;;;;;10417082;28;20207;-72
2022/04/06 02:26:13;;;;;;;12.40;10.35;;;;;;;;;;10419854;28;20205;-71
2022/04/06 02:31:14;;;;;;;11.00;9.60;;;;;;;;;;10413378;28;20709;-72
2022/04/06 02:36:15;;;;;;;15.70;9.88;;;;;;;;;;10415252;28;20214;-72
2022/04/06 02:41:17;;;;;;;12.52;9.02;;;;;;;;;;10393609;28;20210;-72
2022/04/06 02:46:18;;;;;;;17.40;9.05;;;;;;;;;;10412711;28;20213;-72
2022/04/06 02:51:19;;;;;;;12.15;8.77;;;;;;;;;;10412840;28;20766;-72
2022/04/06 02:56:20;;;;;;;10.52;8.20;;;;;;;;;;10411678;28;20282;-72
2022/04/06 03:01:21;;;;;;;10.68;7.90;;;;;;;;;;10415786;28;20229;-72
2022/04/06 03:06:22;;;;;;;11.27;8.13;;;;;;;;;;10419592;28;20245;-72
2022/04/06 03:11:23;;;;;;;11.23;8.23;;;;;;;;;;10418520;28;20269;-72
2022/04/06 03:16:24;;;;;;;13.90;10.77;;;;;;;;;;10415728;28;20203;-73
2022/04/06 03:21:26;;;;;;;11.38;9.25;;;;;;;;;;10398033;28;20230;-73
2022/04/06 03:26:27;;;;;;;16.02;11.88;;;;;;;;;;10416694;28;20203;-73
2022/04/06 03:31:28;;;;;;;18.02;13.85;;;;;;;;;;10413877;28;20350;-73
2022/04/06 03:36:29;;;;;;;20.42;14.55;;;;;;;;;;10419099;28;20207;-73
2022/04/06 03:41:30;;;;;;;27.33;17.23;;;;;;;;;;10416844;28;20203;-72
2022/04/06 03:46:31;;;;;;;26.52;18.55;;;;;;;;;;10418685;28;20766;-73
2022/04/06 03:51:32;;;;;;;31.90;20.75;;;;;;;;;;10397653;28;20214;-74
2022/04/06 03:56:33;;;;;;;31.77;21.48;;;;;;;;;;10417718;28;20719;-74
2022/04/06 04:01:35;;;;;;;44.42;23.20;;;;;;;;;;10417649;28;21029;-74
2022/04/06 04:06:39;;;;;;;36.35;21.98;;;;;;;;;;10418577;28;20620;-74
2022/04/06 04:11:40;;;;;;;31.58;21.85;;;;;;;;;;10414922;28;20220;-74
2022/04/06 04:16:41;;;;;;;37.97;22.27;;;;;;;;;;10415109;28;20278;-74
2022/04/06 04:21:43;;;;;;;38.70;23.55;;;;;;;;;;10418723;28;20589;-73
2022/04/06 04:26:44;;;;;;;32.92;21.98;;;;;;;;;;10415828;28;20786;-73
2022/04/06 04:31:45;;;;;;;29.48;21.35;;;;;;;;;;10422586;28;20211;-74
2022/04/06 04:36:46;;;;;;;31.85;20.27;;;;;;;;;;10426012;28;20197;-74
2022/04/06 04:41:49;;;;;;;36.33;19.33;;;;;;;;;;10415257;28;20643;-74
2022/04/06 04:46:50;;;;;;;31.58;18.08;;;;;;;;;;10419085;28;20980;-74
2022/04/06 04:51:51;;;;;;;24.42;17.70;;;;;;;;;;10424453;28;20249;-74
2022/04/06 04:56:52;;;;;;;32.00;16.85;;;;;;;;;;10424425;28;20215;-73
2022/04/06 05:01:53;;;;;;;24.88;16.25;;;;;;;;;;10421120;28;20700;-74
2022/04/06 05:06:54;;;;;;;24.20;15.88;;;;;;;;;;10416827;28;20196;-73
2022/04/06 05:11:56;;;;;;;27.48;15.45;;;;;;;;;;10425289;28;20218;-71
2022/04/06 05:16:57;;;;;;;22.83;13.55;;;;;;;;;;10421263;28;20199;-74
2022/04/06 05:21:59;;;;;;;18.08;12.75;;;;;;;;;;10415839;28;20290;-74
2022/04/06 05:27:02;;;;;;;19.45;12.88;;;;;;;;;;10420439;28;20639;-74
2022/04/06 05:32:03;;;;;;;17.45;12.40;;;;;;;;;;10415603;28;20238;-74
2022/04/06 05:37:05;;;;;;;18.85;12.57;;;;;;;;;;10422412;28;20265;-74
2022/04/06 05:42:06;;;;;;;20.15;12.15;;;;;;;;;;10420829;28;20293;-75
2022/04/06 05:47:07;;;;;;;15.30;10.95;;;;;;;;;;10416392;28;20698;-74
2022/04/06 05:52:09;;;;;;;18.10;9.93;;;;;;;;;;10417445;28;20273;-74
2022/04/06 05:57:11;;;;;;;16.58;8.73;;;;;;;;;;10416196;28;20227;-74
2022/04/06 06:02:12;;;;;;;11.50;7.70;;;;;;;;;;10420000;28;20207;-73
2022/04/06 06:07:13;;;;;;;12.30;8.07;;;;;;;;;;10417937;28;20310;-75
2022/04/06 06:12:14;;;;;;;12.10;7.93;;;;;;;;;;10410971;28;20215;-77
2022/04/06 06:17:15;;;;;;;7.93;7.05;;;;;;;;;;10413695;28;20627;-74
2022/04/06 06:22:17;;;;;;;11.45;6.90;;;;;;;;;;10408217;28;20222;-76
2022/04/06 06:27:19;;;;;;;10.63;6.60;;;;;;;;;;10396806;28;20211;-74
2022/04/06 06:32:20;;;;;;;7.85;6.10;;;;;;;;;;10409625;28;20284;-76
2022/04/06 06:37:21;;;;;;;12.38;6.47;;;;;;;;;;10401756;28;21082;-74
2022/04/06 06:42:23;;;;;;;8.40;6.97;;;;;;;;;;10415481;28;20207;-77
2022/04/06 06:47:24;;;;;;;12.82;7.03;;;;;;;;;;10411949;28;20270;-77
2022/04/06 06:52:25;;;;;;;11.77;6.20;;;;;;;;;;10411990;28;20234;-72
2022/04/06 06:57:26;;;;;;;7.80;6.22;;;;;;;;;;10423711;28;20238;-74
2022/04/06 07:02:28;;;;;;;9.88;7.25;;;;;;;;;;10414842;28;20229;-74
2022/04/06 07:07:29;;;;;;;7.32;6.65;;;;;;;;;;10415171;28;20196;-77
2022/04/06 07:12:31;;;;;;;10.85;6.85;;;;;;;;;;10419921;28;20294;-75
2022/04/06 07:17:32;;;;;;;12.50;7.35;;;;;;;;;;10418882;28;20201;-77
2022/04/06 07:22:33;;;;;;;18.48;7.22;;;;;;;;;;10419328;28;20203;-75
2022/04/06 07:27:35;;;;;;;9.68;7.38;;;;;;;;;;10421485;28;20198;-75
2022/04/06 07:32:36;;;;;;;10.10;7.43;;;;;;;;;;10419776;28;20230;-75
2022/04/06 07:37:38;;;;;;;11.60;7.75;;;;;;;;;;10417608;28;20196;-78
2022/04/06 07:42:40;;;;;;;10.98;7.53;;;;;;;;;;10418663;28;20194;-75
2022/04/06 07:47:41;;;;;;;10.48;8.05;;;;;;;;;;10414624;28;20294;-74
2022/04/06 07:52:43;;;;;;;10.57;8.07;;;;;;;;;;10413328;28;20283;-75
2022/04/06 07:57:45;;;;;;;12.35;8.70;;;;;;;;;;10406262;28;20215;-75
2022/04/06 08:02:46;;;;;;;15.77;9.80;;;;;;;;;;10426700;28;20219;-75
2022/04/06 08:07:50;;;;;;;14.65;9.18;;;;;;;;;;10426784;28;20233;-76
2022/04/06 08:12:51;;;;;;;12.30;9.82;;;;;;;;;;10408782;28;20276;-76
2022/04/06 08:17:52;;;;;;;15.30;10.00;;;;;;;;;;10423649;28;20207;-76
2022/04/06 08:22:53;;;;;;;14.60;10.27;;;;;;;;;;10426124;28;20206;-77
2022/04/06 08:27:54;;;;;;;19.65;10.48;;;;;;;;;;10423977;28;20793;-76
2022/04/06 08:32:58;;;;;;;13.68;9.30;;;;;;;;;;10419225;28;20219;-77
2022/04/06 08:37:59;;;;;;;20.77;11.23;;;;;;;;;;10423246;28;20208;-75
2022/04/06 08:43:00;;;;;;;15.15;10.02;;;;;;;;;;10419695;28;20291;-76
2022/04/06 08:54:09;;;;;;;12.65;9.13;;;;;;;;;;10421751;28;20214;-76
2022/04/06 08:59:11;;;;;;;12.38;9.13;;;;;;;;;;10422551;28;20729;-78
2022/04/06 09:04:12;;;;;;;12.10;8.73;;;;;;;;;;10426045;28;20227;-78
2022/04/06 09:09:20;;;;;;;8.77;7.60;;;;;;;;;;10424771;28;20195;-77
2022/04/06 09:14:30;;;;;;;11.68;8.68;;;;;;;;;;10425696;28;20262;-78
2022/04/06 09:19:32;;;;;;;10.27;7.13;;;;;;;;;;10425928;28;20207;-77
2022/04/06 09:24:33;;;;;;;11.73;7.80;;;;;;;;;;10422743;28;20199;-77
2022/04/06 09:29:35;;;;;;;12.43;8.73;;;;;;;;;;10418717;28;20317;-77
2022/04/06 09:34:41;;;;;;;13.95;9.13;;;;;;;;;;10414362;28;20596;-76
2022/04/06 09:39:42;;;;;;;12.20;9.13;;;;;;;;;;10419318;28;20206;-76
2022/04/06 09:50:19;;;;;;;10.98;8.05;;;;;;;;;;10418445;28;20207;-77
2022/04/06 09:55:21;;;;;;;8.57;6.65;;;;;;;;;;10420088;28;20961;-76
2022/04/06 10:00:23;;;;;;;9.27;7.70;;;;;;;;;;10423430;28;20205;-76
2022/04/06 10:05:25;;;;;;;11.00;7.82;;;;;;;;;;10419732;28;20213;-75
2022/04/06 10:10:26;;;;;;;13.38;8.10;;;;;;;;;;10402435;28;20888;-76
2022/04/06 10:15:27;;;;;;;8.00;7.07;;;;;;;;;;10418900;28;20215;-76
2022/04/06 10:20:34;;;;;;;9.45;6.93;;;;;;;;;;10421156;28;20310;-75
2022/04/06 10:25:54;;;;;;;6.82;6.00;;;;;;;;;;10418632;28;20246;-75
2022/04/06 10:31:15;;;;;;;6.55;5.00;;;;;;;;;;10411251;28;20218;-76
2022/04/06 10:36:16;;;;;;;7.82;5.90;;;;;;;;;;10414311;28;20203;-76
2022/04/06 10:41:17;;;;;;;6.75;4.55;;;;;;;;;;10413244;28;20333;-78
2022/04/06 10:46:32;;;;;;;4.97;3.40;;;;;;;;;;10412324;28;20214;-77
2022/04/06 10:51:40;;;;;;;3.58;3.38;;;;;;;;;;10395293;28;20203;-78
2022/04/06 10:56:50;;;;;;;3.33;3.20;;;;;;;;;;10415510;28;20293;-76
2022/04/06 11:02:10;;;;;;;3.40;3.05;;;;;;;;;;10415112;28;20222;-76
2022/04/06 11:07:11;;;;;;;3.97;2.78;;;;;;;;;;10417859;28;20199;-77
2022/04/06 11:12:19;;;;;;;5.53;3.47;;;;;;;;;;10415276;28;20215;-77
2022/04/06 11:17:34;;;;;;;3.65;2.75;;;;;;;;;;10414122;28;20238;-76
2022/04/06 11:22:38;;;;;;;3.85;1.92;;;;;;;;;;10415875;28;20209;-76
2022/04/06 11:27:39;;;;;;;3.92;2.45;;;;;;;;;;10418752;28;20222;-76
2022/04/06 11:32:50;;;;;;;4.97;3.20;;;;;;;;;;10418810;28;20261;-76
2022/04/06 11:37:51;;;;;;;6.30;3.85;;;;;;;;;;10416884;28;20207;-78
2022/04/06 11:42:53;;;;;;;7.28;4.57;;;;;;;;;;10417777;28;20210;-78
2022/04/06 11:47:59;;;;;;;5.60;5.10;;;;;;;;;;10411822;28;20246;-77
2022/04/06 11:53:15;;;;;;;6.28;5.65;;;;;;;;;;10416995;28;20257;-78
2022/04/06 11:58:29;;;;;;;5.65;5.25;;;;;;;;;;10412723;28;20344;-77
2022/04/06 12:03:34;;;;;;;5.78;5.22;;;;;;;;;;10413976;28;20636;-72
2022/04/06 12:08:35;;;;;;;7.65;5.30;;;;;;;;;;10407818;28;20198;-78
2022/04/06 12:13:38;;;;;;;5.20;4.70;;;;;;;;;;10374846;28;20293;-76
2022/04/06 12:18:39;;;;;;;4.47;4.07;;;;;;;;;;10410457;28;20204;-77
2022/04/06 12:23:45;;;;;;;9.25;4.72;;;;;;;;;;10410137;28;20715;-77
2022/04/06 12:28:50;;;;;;;8.68;4.63;;;;;;;;;;10411016;28;20252;-78
2022/04/06 12:33:51;;;;;;;7.40;4.93;;;;;;;;;;10394143;28;20288;-75
2022/04/06 12:39:01;;;;;;;5.18;4.78;;;;;;;;;;10410973;28;21000;-77
2022/04/06 12:44:03;;;;;;;5.70;4.35;;;;;;;;;;10417976;28;20207;-77
2022/04/06 12:49:36;;;;;;;5.10;4.68;;;;;;;;;;10420597;28;20214;-77
2022/04/06 12:54:39;;;;;;;5.13;4.60;;;;;;;;;;10387815;28;20214;-76
2022/04/06 12:59:41;;;;;;;4.40;4.10;;;;;;;;;;10415656;28;20203;-77
2022/04/06 13:04:43;;;;;;;5.32;4.05;;;;;;;;;;10419827;28;20663;-77
2022/04/06 13:09:51;;;;;;;5.90;4.43;;;;;;;;;;10421915;28;20270;-76
2022/04/06 13:14:53;;;;;;;4.00;3.60;;;;;;;;;;10422761;28;20597;-78
2022/04/06 13:19:54;;;;;;;3.05;2.92;;;;;;;;;;10421084;28;20199;-78
2022/04/06 13:24:56;;;;;;;4.50;2.72;;;;;;;;;;10420571;28;20712;-77
2022/04/06 13:29:58;;;;;;;3.50;2.22;;;;;;;;;;10418816;28;20195;-76
2022/04/06 13:35:00;;;;;;;4.20;2.47;;;;;;;;;;10416256;28;20995;-77
2022/04/06 13:40:02;;;;;;;2.80;2.42;;;;;;;;;;10420270;28;20223;-78
2022/04/06 13:45:05;;;;;;;3.97;2.20;;;;;;;;;;10424972;28;20281;-77
2022/04/06 13:50:07;;;;;;;2.17;1.90;;;;;;;;;;10428177;28;20202;-76
2022/04/06 13:55:09;;;;;;;2.15;1.98;;;;;;;;;;10420003;28;20662;-77
2022/04/06 14:00:10;;;;;;;1.35;1.25;;;;;;;;;;10423515;28;20203;-77
2022/04/06 14:05:18;;;;;;;1.23;1.20;;;;;;;;;;10424422;28;20211;-78
2022/04/06 14:10:19;;;;;;;1.10;1.10;;;;;;;;;;10423832;28;20206;-77
2022/04/06 14:15:22;;;;;;;1.92;1.13;;;;;;;;;;10416124;28;20323;-77
2022/04/06 14:20:24;;;;;;;1.60;1.50;;;;;;;;;;10420294;28;20215;-77
2022/04/06 14:25:26;;;;;;;1.80;1.70;;;;;;;;;;10417644;28;20210;-77
2022/04/06 14:30:27;;;;;;;1.38;1.30;;;;;;;;;;10422624;28;20211;-77
2022/04/06 14:35:28;;;;;;;1.20;1.20;;;;;;;;;;10403775;28;20762;-76
2022/04/06 14:40:30;;;;;;;4.43;1.50;;;;;;;;;;10415902;28;20195;-77
2022/04/06 14:45:31;;;;;;;1.98;1.75;;;;;;;;;;10421203;28;20674;-76
2022/04/06 14:50:32;;;;;;;4.82;1.20;;;;;;;;;;10418673;28;20289;-76
2022/04/06 14:55:35;;;;;;;1.65;1.45;;;;;;;;;;10420101;28;20237;-77
2022/04/06 15:00:36;;;;;;;2.15;1.45;;;;;;;;;;10417926;28;20222;-76
2022/04/06 15:05:38;;;;;;;1.17;1.15;;;;;;;;;;10418436;28;20207;-77
2022/04/06 15:10:40;;;;;;;1.75;1.65;;;;;;;;;;10421813;28;20871;-77
2022/04/06 15:15:42;;;;;;;1.77;1.63;;;;;;;;;;10419952;28;20576;-78
2022/04/06 15:20:43;;;;;;;1.98;1.73;;;;;;;;;;10417349;28;20194;-78
2022/04/06 15:25:45;;;;;;;4.95;1.65;;;;;;;;;;10418258;28;20206;-76
2022/04/06 15:30:46;;;;;;;2.10;1.20;;;;;;;;;;10417091;28;20219;-77
2022/04/06 15:41:07;;;;;;;2.83;1.08;;;;;;;;;;10409519;28;20695;-78
2022/04/06 15:46:09;;;;;;;1.13;1.05;;;;;;;;;;10418689;28;20207;-77
2022/04/06 15:51:10;;;;;;;1.05;1.05;;;;;;;;;;10419410;28;20797;-76
2022/04/06 15:56:14;;;;;;;2.45;1.40;;;;;;;;;;10413796;28;20710;-77
2022/04/06 16:01:16;;;;;;;0.95;0.95;;;;;;;;;;10415779;28;20307;-78
2022/04/06 16:06:17;;;;;;;1.60;1.50;;;;;;;;;;10422098;28;20774;-78
2022/04/06 16:11:18;;;;;;;1.10;1.10;;;;;;;;;;10417195;28;20204;-78
2022/04/06 16:16:19;;;;;;;2.88;2.63;;;;;;;;;;10428336;28;20685;-78
2022/04/06 16:21:20;;;;;;;3.08;3.03;;;;;;;;;;10431317;28;20197;-85
2022/04/06 16:26:21;;;;;;;1.83;1.73;;;;;;;;;;10442891;28;20203;-83
2022/04/06 16:31:23;;;;;;;2.00;1.83;;;;;;;;;;10434832;28;20653;-76
2022/04/06 16:36:25;;;;;;;2.33;2.22;;;;;;;;;;10429518;28;20216;-85
2022/04/06 16:41:26;;;;;;;3.38;3.08;;;;;;;;;;10424426;28;20254;-82
2022/04/06 16:46:29;;;;;;;8.65;5.93;;;;;;;;;;10421927;28;20902;-75
2022/04/06 16:56:53;;;;;;;1.65;1.40;;;;;;;;;;10431177;28;20621;-78
2022/04/06 17:01:54;;;;;;;1.73;1.15;;;;;;;;;;10427933;28;20349;-80
2022/04/06 17:06:55;;;;;;;1.30;0.93;;;;;;;;;;10428547;28;20686;-79
2022/04/06 17:11:56;;;;;;;1.98;1.38;;;;;;;;;;10426447;28;20350;-79
2022/04/06 17:16:57;;;;;;;1.40;1.30;;;;;;;;;;10429484;28;20198;-79
2022/04/06 17:21:58;;;;;;;1.73;1.60;;;;;;;;;;10433440;28;20199;-78
2022/04/06 17:26:59;;;;;;;2.50;1.35;;;;;;;;;;10418721;28;20202;-79
2022/04/06 17:32:00;;;;;;;1.70;1.30;;;;;;;;;;10427854;28;20222;-79
2022/04/06 17:37:02;;;;;;;1.77;1.23;;;;;;;;;;10420013;28;20709;-81
2022/04/06 17:42:03;;;;;;;2.10;1.02;;;;;;;;;;10419212;28;20290;-76
2022/04/06 17:47:04;;;;;;;1.60;1.30;;;;;;;;;;10415099;28;20210;-77
2022/04/06 17:52:06;;;;;;;2.60;1.88;;;;;;;;;;10417723;28;20230;-78
2022/04/06 17:57:10;;;;;;;1.88;1.75;;;;;;;;;;10421041;28;20702;-77
2022/04/06 18:02:12;;;;;;;1.50;1.45;;;;;;;;;;10405028;28;20211;-81
2022/04/06 18:07:13;;;;;;;1.88;1.70;;;;;;;;;;10427393;28;20260;-78
2022/04/06 18:17:34;;;;;;;1.90;1.85;;;;;;;;;;10426422;28;20199;-75
2022/04/06 18:22:36;;;;;;;5.70;1.60;;;;;;;;;;10419797;28;20286;-75
2022/04/06 18:27:37;;;;;;;1.70;1.60;;;;;;;;;;10421803;28;20215;-79
2022/04/06 18:32:38;;;;;;;1.55;1.45;;;;;;;;;;10420460;28;20350;-78
2022/04/06 18:37:39;;;;;;;1.15;1.15;;;;;;;;;;10421030;28;20294;-77
2022/04/06 18:42:40;;;;;;;2.15;1.35;;;;;;;;;;10420607;28;20230;-77
2022/04/06 18:47:41;;;;;;;1.50;1.40;;;;;;;;;;10423982;28;20285;-76
2022/04/06 18:52:42;;;;;;;4.25;2.03;;;;;;;;;;10411825;28;20233;-75
2022/04/06 18:57:43;;;;;;;3.15;1.27;;;;;;;;;;10419648;28;20208;-77
2022/04/06 19:02:44;;;;;;;0.85;0.85;;;;;;;;;;10420876;28;20225;-76
2022/04/06 19:07:45;;;;;;;2.40;1.02;;;;;;;;;;10422799;28;20208;-77
2022/04/06 19:12:46;;;;;;;4.00;1.00;;;;;;;;;;10422552;28;20222;-77
2022/04/06 19:17:47;;;;;;;1.75;0.93;;;;;;;;;;10420382;28;20594;-77
2022/04/06 19:22:48;;;;;;;0.95;0.95;;;;;;;;;;10417140;28;20212;-77
2022/04/06 19:27:49;;;;;;;2.03;0.80;;;;;;;;;;10417830;28;20208;-76
2022/04/06 19:32:51;;;;;;;0.80;0.80;;;;;;;;;;10417220;28;20304;-77
2022/04/06 19:37:52;;;;;;;3.42;1.20;;;;;;;;;;10421761;28;20202;-78
2022/04/06 19:42:53;;;;;;;2.90;0.73;;;;;;;;;;10418941;28;20199;-77
2022/04/06 19:47:54;;;;;;;1.05;1.00;;;;;;;;;;10414527;28;20902;-77
2022/04/06 19:52:55;;;;;;;1.33;0.93;;;;;;;;;;10429568;28;20212;-77
2022/04/06 19:57:56;;;;;;;0.70;0.57;;;;;;;;;;10423564;28;20293;-76
2022/04/06 20:02:57;;;;;;;0.80;0.80;;;;;;;;;;10424046;28;20302;-77
2022/04/06 20:07:58;;;;;;;1.73;1.05;;;;;;;;;;10431910;28;20199;-75
2022/04/06 20:12:59;;;;;;;0.77;0.77;;;;;;;;;;10425574;28;20305;-75
2022/04/06 20:18:00;;;;;;;2.08;1.17;;;;;;;;;;10425033;28;20326;-76
2022/04/06 20:23:02;;;;;;;0.82;0.82;;;;;;;;;;10427247;28;20195;-76
2022/04/06 20:28:03;;;;;;;2.58;1.10;;;;;;;;;;10426493;28;20207;-76
2022/04/06 20:33:05;;;;;;;1.60;1.45;;;;;;;;;;10429600;28;20298;-77
2022/04/06 20:38:06;;;;;;;1.42;1.33;;;;;;;;;;10424921;28;20714;-76
2022/04/06 20:43:07;;;;;;;1.40;1.40;;;;;;;;;;10425386;28;20218;-77
2022/04/06 20:48:08;;;;;;;1.10;1.10;;;;;;;;;;10428182;28;20211;-76
2022/04/06 20:53:11;;;;;;;3.05;1.42;;;;;;;;;;10424386;28;20255;-76
2022/04/06 20:58:13;;;;;;;1.30;1.17;;;;;;;;;;10427130;28;20191;-76
2022/04/06 21:03:14;;;;;;;2.20;1.35;;;;;;;;;;10422633;28;20257;-76
2022/04/06 21:08:15;;;;;;;1.10;1.10;;;;;;;;;;10428044;28;20203;-76
2022/04/06 21:13:16;;;;;;;1.95;1.20;;;;;;;;;;10431129;28;20683;-75
2022/04/06 21:18:18;;;;;;;3.03;1.20;;;;;;;;;;10423514;28;20659;-76
2022/04/06 21:23:21;;;;;;;4.43;1.38;;;;;;;;;;10425741;28;20711;-76
2022/04/06 21:28:22;;;;;;;3.47;1.40;;;;;;;;;;10424615;28;20682;-77
2022/04/06 21:33:24;;;;;;;3.90;1.40;;;;;;;;;;10423673;28;20223;-75
2022/04/06 21:38:27;;;;;;;1.38;1.10;;;;;;;;;;10423933;28;20585;-76
2022/04/06 21:43:29;;;;;;;3.42;1.40;;;;;;;;;;10415062;28;20210;-75
2022/04/06 21:48:30;;;;;;;1.50;1.30;;;;;;;;;;10426253;28;20583;-76
2022/04/06 21:53:31;;;;;;;2.88;1.30;;;;;;;;;;10422251;28;20230;-75
2022/04/06 21:58:32;;;;;;;2.25;1.10;;;;;;;;;;10420038;28;20303;-76
2022/04/06 22:03:34;;;;;;;2.25;1.48;;;;;;;;;;10422564;28;20219;-77
2022/04/06 22:08:35;;;;;;;2.08;1.60;;;;;;;;;;10418156;28;20207;-77
2022/04/06 22:13:36;;;;;;;4.35;2.40;;;;;;;;;;10425059;28;20215;-76
2022/04/06 22:18:37;;;;;;;3.92;1.73;;;;;;;;;;10416727;28;20265;-77
2022/04/06 22:23:39;;;;;;;2.17;2.08;;;;;;;;;;10405086;28;20283;-77
2022/04/06 22:28:42;;;;;;;2.72;1.65;;;;;;;;;;10424760;28;20203;-76
2022/04/06 22:33:43;;;;;;;2.10;1.98;;;;;;;;;;10421633;28;20314;-76
2022/04/06 22:38:46;;;;;;;2.08;1.63;;;;;;;;;;10426158;28;20238;-76
2022/04/06 22:43:47;;;;;;;2.00;1.85;;;;;;;;;;10419529;28;20196;-77
2022/04/06 22:48:48;;;;;;;2.50;1.80;;;;;;;;;;10422690;28;21243;-76
2022/04/06 22:53:49;;;;;;;1.83;1.80;;;;;;;;;;10417650;28;20714;-77
2022/04/06 22:58:50;;;;;;;2.10;1.90;;;;;;;;;;10426609;28;20203;-77
2022/04/06 23:03:51;;;;;;;2.55;1.98;;;;;;;;;;10418924;28;20607;-77
2022/04/06 23:08:54;;;;;;;2.30;1.88;;;;;;;;;;10423645;28;20207;-77
2022/04/06 23:13:55;;;;;;;2.40;2.25;;;;;;;;;;10423374;28;20984;-77
2022/04/06 23:18:56;;;;;;;2.45;2.35;;;;;;;;;;10423180;28;20279;-76
2022/04/06 23:23:57;;;;;;;2.60;2.50;;;;;;;;;;10416073;28;20252;-76
2022/04/06 23:28:58;;;;;;;2.65;2.47;;;;;;;;;;10420004;28;20261;-77
2022/04/06 23:34:00;;;;;;;2.88;2.45;;;;;;;;;;10400556;28;20238;-76
2022/04/06 23:39:01;;;;;;;3.00;2.75;;;;;;;;;;10412216;28;20260;-76
2022/04/06 23:44:02;;;;;;;3.13;2.65;;;;;;;;;;10416243;28;20223;-76
2022/04/06 23:49:03;;;;;;;3.40;3.10;;;;;;;;;;10418199;28;20207;-76
2022/04/06 23:54:04;;;;;;;4.78;2.75;;;;;;;;;;10418157;28;20266;-77
2022/04/06 23:59:05;;;;;;;4.93;3.30;;;;;;;;;;10421703;28;20256;-76
